Startpagina
METAR-TAF:

METAR-TAF

Vliegvelden :

Minneapolis, Minnesota, Verenigde Staten

Internationale luchthaven Minneapolis-Saint Paul

breedte: 44-52-59N, lengte: 093-13-44W, hoogte: 256 m

Actueel weer

Dit bericht is 53 minuten geleden gemaakt, om 05:53 UTC
Wind 4 kt uit het noordoosten
Temperatuur 22°C
Vochtigheid 69%
Druk 1017 hPa
Zicht: 16.1 km
Weinig wolken op 30000 ft

METAR: KMSP 280553Z 05004KT 10SM FEW300 22/16 A3004 RMK AO2 SLP167 T02170156 10283 20217 402940189 50002

Tijdstip: 01:46 (06:46 UTC)

Verwachting

Dit bericht is 1 uur en het 26 minuten geleden gemaakt, om 05:20 UTC
Verwachting geldig van 28 om 06 UTC tot 29 om 12 UTC
Wind 4 kt uit het noordnoordoosten
Zicht: 10 km
Verspreide wolken op 25000 ft
Van 28 om 1600 UTC
Wind 8 kt uit het oosten
Zicht: 10 km
Verspreide wolken op 6000 ft
Verspreide wolken op 11000 ft

TAF: KMSP 280520Z 2806/2912 03004KT P6SM SCT250 FM281600 09008KT P6SM SCT060 SCT110

Waarnemingen en weersverwachtingen van meer dan 4000 vliegvelden (METAR en TAF).

De beschikbare stations zijn de gele en rode punten op de kaart.

Ga met uw muis naar het station om de naam te zien.

Klik dan om waarnemingen en weersverwachtingen te zien.

kaart wijzigen: klik op de groene knoppen met een zwart kruis om in te zoomen, op de groene knop met een streepje om uit te zoomen of op de groene pijlen voor aangrenzende kaarten.


METAR-TAF: